Latest Weather Observations for Evans Head

IDN60801

Issued at 7:32 am EST Thursday 20 June 2019 (issued every 10 minutes, with the page automatically refreshed every 10 minutes)

About weather observations | Map of weather stations | Latest weather observations for NSW | Other Formats
Station Details ID: 058212 Name: EVANS HEAD RAAF BOMBING RANGE AWS Lat: -29.18 Lon: 153.40 Height: 62.5 m
Data from the previous 72 hours. | See also: Recent months at Evans Head
Date/Time
EST
Temp
°C
App
Temp
°C
Dew
Point
°C
Rel
Hum
%
Delta-T
°C
Wind Press
QNH
hPa
Press
MSL
hPa
Rain since
9am
mm
Dir  Spd
km/h
Gust
km/h
Spd
kts
Gust
kts
20/07:00am 11.9 8.2 6.4 69 2.6 SW 15 20 8 11 1021.9 1021.8 0.0
20/06:30am 11.8 8.1 6.3 69 2.6 SSW 15 24 8 13 1021.5 1021.4 0.0
20/06:00am 11.9 7.4 6.2 68 2.7 SSW 19 26 10 14 1021.2 1021.1 0.0
20/05:30am 11.8 7.2 5.7 66 2.8 SW 19 28 10 15 1021.0 1020.9 0.0
20/05:00am 11.8 7.2 5.4 65 3.0 SW 19 26 10 14 1020.7 1020.6 0.0
20/04:30am 11.7 6.8 5.3 65 3.0 SW 20 28 11 15 1020.6 1020.5 0.0
20/04:00am 11.7 7.5 5.6 66 2.8 SW 17 22 9 12 1020.6 1020.5 0.0
20/03:30am 12.0 7.2 5.6 65 3.0 SW 20 26 11 14 1020.6 1020.5 0.0
20/03:00am 11.8 7.2 5.4 65 3.0 SW 19 26 10 14 1020.6 1020.5 0.0
20/02:30am 12.3 7.7 5.7 64 3.1 SW 19 24 10 13 1020.5 1020.4 0.0
20/02:00am 12.4 8.3 6.0 65 3.0 SW 17 26 9 14 1020.6 1020.5 0.0
20/01:30am 12.9 8.3 6.3 64 3.1 SW 20 30 11 16 1020.5 1020.4 0.0
20/01:00am 13.2 9.2 6.5 64 3.2 SW 17 24 9 13 1020.6 1020.5 0.0
20/12:30am 13.5 9.2 7.1 65 3.1 SW 19 24 10 13 1020.8 1020.7 0.0
20/12:00am 13.5 9.7 7.7 68 2.9 SW 17 20 9 11 1020.9 1020.8 0.0
 
Date/Time
EST
Temp
°C
App
Temp
°C
Dew
Point
°C
Rel
Hum
%
Delta-T
°C
Wind Press
QNH
hPa
Press
MSL
hPa
Rain since
9am
mm
Dir  Spd
km/h
Gust
km/h
Spd
kts
Gust
kts
19/11:30pm 13.5 10.5 7.9 69 2.8 W 13 17 7 9 1021.1 1021.0 0.0
19/11:00pm 15.6 12.2 9.3 66 3.2 S 17 24 9 13 1020.8 1020.7 0.0
19/10:30pm 16.8 12.3 10.2 65 3.5 SSE 24 33 13 18 1020.8 1020.7 0.0
19/10:00pm 16.9 12.4 10.1 64 3.6 SSE 24 35 13 19 1020.7 1020.6 0.0
19/09:30pm 17.0 11.9 9.2 60 4.1 SSE 26 35 14 19 1020.8 1020.7 0.0
19/09:00pm 16.2 11.6 9.6 65 3.4 SSE 24 35 13 19 1020.6 1020.5 0.0
19/08:30pm 16.3 11.5 8.8 61 3.9 SSE 24 35 13 19 1020.6 1020.5 0.0
19/08:00pm 16.5 11.4 9.2 62 3.8 SSE 26 39 14 21 1020.6 1020.5 0.0
19/07:30pm 16.3 11.5 9.0 62 3.8 SSE 24 32 13 17 1020.5 1020.4 0.0
19/07:00pm 16.3 11.3 9.7 65 3.4 SSE 26 35 14 19 1020.3 1020.2 0.0
19/06:30pm 16.3 11.7 9.7 65 3.5 SSE 24 41 13 22 1020.0 1019.9 0.0
19/06:00pm 16.0 11.4 9.7 66 3.3 SSE 24 33 13 18 1019.7 1019.6 0.0
19/05:30pm 16.1 11.5 9.8 66 3.3 SSE 24 32 13 17 1019.4 1019.3 0.0
19/05:00pm 15.9 11.7 9.8 67 3.2 SSE 22 30 12 16 1019.1 1019.0 0.0
19/04:30pm 15.8 12.0 9.9 68 3.1 SSE 20 32 11 17 1018.9 1018.8 0.0
19/04:00pm 16.6 12.8 9.8 64 3.6 SSE 20 28 11 15 1018.7 1018.6 0.0
19/03:30pm 17.3 12.8 10.2 63 3.8 SSE 24 33 13 18 1018.4 1018.3 0.0
19/03:00pm 17.6 13.2 10.5 63 3.8 SSE 24 37 13 20 1018.2 1018.1 0.0
19/02:30pm 17.8 13.3 10.2 61 4.1 SSE 24 35 13 19 1018.1 1018.0 0.0
19/02:00pm 18.1 13.1 11.0 63 3.8 SSE 28 37 15 20 1018.0 1017.9 0.0
19/01:30pm 18.4 13.6 11.5 64 3.8 S 28 41 15 22 1017.8 1017.7 0.0
19/01:00pm 18.2 13.5 12.0 67 3.4 SSE 28 37 15 20 1017.9 1017.8 0.0
19/12:30pm 17.4 13.5 12.1 71 2.9 S 24 33 13 18 1018.2 1018.1 0.0
19/12:00pm 17.8 13.4 11.8 68 3.3 S 26 37 14 20 1018.4 1018.3 0.0
19/11:30am 18.0 13.7 12.2 69 3.2 SSE 26 33 14 18 1018.6 1018.5 0.0
19/11:00am 18.6 15.7 12.8 69 3.3 S 20 28 11 15 1019.0 1018.9 0.0
19/10:30am 18.2 15.1 12.2 68 3.3 S 20 30 11 16 1019.3 1019.2 0.0
19/10:00am 17.5 15.0 12.4 72 2.8 SSW 17 28 9 15 1019.2 1019.1 0.0
19/09:30am 16.1 13.4 11.7 75 2.4 SW 17 28 9 15 1019.2 1019.1 0.0
19/09:00am 14.6 11.7 11.0 79 1.9 SW 17 22 9 12 1019.2 1019.1 3.0
19/08:30am 14.2 11.7 11.0 81 1.7 WSW 15 24 8 13 1019.0 1018.9 3.0
19/08:00am 13.8 10.8 10.6 81 1.7 SW 17 22 9 12 1018.4 1018.3 3.0
19/07:30am 13.5 10.0 10.1 80 1.8 SW 19 26 10 14 1018.0 1017.9 3.0
19/07:00am 12.7 9.3 10.4 86 1.2 SW 19 24 10 13 1017.8 1017.7 3.0
19/06:30am 12.7 10.1 10.8 88 1.0 SW 15 20 8 11 1017.5 1017.4 3.0
19/06:00am 12.7 11.1 11.4 92 0.7 SW 11 17 6 9 1017.3 1017.2 3.0
19/05:30am 13.1 12.3 11.8 92 0.7 SSW 7 13 4 7 1016.9 1016.8 3.0
19/05:00am 13.8 12.1 12.5 92 0.7 WSW 13 19 7 10 1016.5 1016.4 3.0
19/04:30am 13.8 12.1 12.4 91 0.8 WSW 13 17 7 9 1016.2 1016.1 2.8
19/04:00am 13.9 11.8 12.3 90 0.9 WSW 15 17 8 9 1016.1 1016.0 2.8
19/03:30am 13.8 11.9 11.8 88 1.1 WSW 13 17 7 9 1016.2 1016.1 2.8
19/03:00am 13.9 12.0 11.9 88 1.1 WSW 13 15 7 8 1016.4 1016.3 2.8
19/02:30am 13.8 12.3 11.8 88 1.1 WSW 11 15 6 8 1016.5 1016.4 2.8
19/02:00am 14.3 12.6 12.3 88 1.1 WSW 13 15 7 8 1016.6 1016.5 2.8
19/01:30am 14.4 13.2 12.8 90 0.9 W 11 15 6 8 1016.6 1016.5 2.8
19/01:00am 14.4 12.9 13.0 91 0.8 W 13 17 7 9 1016.6 1016.5 2.8
19/12:30am 14.5 13.0 13.0 91 0.8 W 13 15 7 8 1016.7 1016.6 2.8
19/12:00am 14.8 13.4 13.3 91 0.8 W 13 15 7 8 1016.8 1016.7 2.8
 
Date/Time
EST
Temp
°C
App
Temp
°C
Dew
Point
°C
Rel
Hum
%
Delta-T
°C
Wind Press
QNH
hPa
Press
MSL
hPa
Rain since
9am
mm
Dir  Spd
km/h
Gust
km/h
Spd
kts
Gust
kts
18/11:30pm 15.2 14.3 13.6 90 0.9 W 11 15 6 8 1017.0 1016.9 2.8
18/11:00pm 15.9 15.1 14.1 89 1.0 W 11 13 6 7 1017.1 1017.0 2.8
18/10:30pm 15.7 14.9 14.1 90 0.9 WSW 11 13 6 7 1017.2 1017.1 2.8
18/10:00pm 15.9 14.6 13.7 87 1.2 WSW 13 15 7 8 1017.2 1017.1 2.8
18/09:30pm 16.1 15.2 13.8 86 1.3 WSW 11 13 6 7 1017.2 1017.1 2.8
18/09:00pm 16.2 15.7 13.7 85 1.4 WSW 9 11 5 6 1017.2 1017.1 2.8
18/08:30pm 16.1 15.5 13.6 85 1.4 WSW 9 20 5 11 1017.2 1017.1 2.8
18/08:00pm 16.5 15.6 13.8 84 1.5 SW 11 13 6 7 1017.1 1017.0 2.8
18/07:30pm 16.4 15.5 13.7 84 1.5 WSW 11 13 6 7 1017.0 1016.9 2.8
18/07:00pm 16.4 15.6 14.1 86 1.3 W 11 13 6 7 1017.0 1016.9 2.8
18/06:30pm 16.1 16.0 13.8 86 1.3 WSW 7 9 4 5 1016.7 1016.6 2.8
18/06:00pm 16.0 15.5 13.8 87 1.2 WSW 9 11 5 6 1016.5 1016.4 2.8
18/05:30pm 16.1 15.3 13.9 87 1.2 SW 11 15 6 8 1016.1 1016.0 2.8
18/05:00pm 16.2 15.3 13.7 85 1.4 S 11 13 6 7 1015.7 1015.6 2.8
18/04:30pm 17.2 16.5 14.3 83 1.7 SW 11 13 6 7 1015.7 1015.6 2.8
18/04:00pm 17.8 17.7 14.9 83 1.7 SW 9 15 5 8 1015.7 1015.6 2.8
18/03:30pm 17.1 17.5 15.3 89 1.1 WSW 7 13 4 7 1016.0 1015.9 2.8
18/03:00pm 16.8 17.5 15.5 92 0.8 WNW 6 9 3 5 1015.9 1015.8 2.8
18/02:30pm 16.7 17.2 15.6 93 0.6 WNW 7 9 4 5 1015.9 1015.8 2.8
18/02:00pm 15.8 14.8 14.5 92 0.7 SW 13 20 7 11 1016.1 1016.0 2.2
18/01:30pm 16.2 15.1 14.2 88 1.1 S 13 19 7 10 1016.6 1016.5 1.0
18/01:00pm 18.0 17.5 13.7 76 2.4 SSW 9 13 5 7 1016.4 1016.3 0.0
18/12:30pm 18.4 17.9 13.7 74 2.7 S 9 17 5 9 1016.4 1016.3 0.0
18/12:00pm 18.8 17.4 13.4 71 3.1 SSW 13 19 7 10 1016.7 1016.6 0.0
18/11:30am 19.0 17.9 13.2 69 3.3 WSW 11 17 6 9 1017.1 1017.0 0.0
18/11:00am 18.3 16.4 11.8 66 3.6 WSW 13 20 7 11 1017.5 1017.4 0.0
18/10:30am 17.2 15.0 10.8 66 3.4 SW 13 20 7 11 1017.4 1017.3 0.0
18/10:00am 16.3 13.4 9.7 65 3.4 SW 15 22 8 12 1017.6 1017.5 0.0
18/09:30am 14.9 12.1 8.6 66 3.2 WSW 13 19 7 10 1017.8 1017.7 0.0
18/09:00am 14.0 10.8 8.4 69 2.8 WNW 15 20 8 11 1018.0 1017.9 0.0
18/08:30am 13.4 10.5 8.0 70 2.7 WNW 13 19 7 10 1018.0 1017.9 0.0
18/08:00am 13.4 10.9 8.3 71 2.5 WNW 11 15 6 8 1017.9 1017.8 0.0
18/07:30am 13.3 10.7 7.7 69 2.8 W 11 19 6 10 1017.4 1017.3 0.0
18/07:00am 13.2 10.1 7.2 67 2.9 WSW 13 17 7 9 1017.3 1017.2 0.0
18/06:30am 13.0 9.8 7.0 67 2.9 WSW 13 17 7 9 1017.1 1017.0 0.0
18/06:00am 12.7 9.2 7.0 68 2.7 WSW 15 17 8 9 1016.7 1016.6 0.0
18/05:30am 12.9 9.3 6.9 67 2.9 WSW 15 19 8 10 1016.2 1016.1 0.0
18/05:00am 12.8 9.3 7.0 68 2.8 WSW 15 17 8 9 1016.2 1016.1 0.0
18/04:30am 13.2 9.7 7.0 66 3.0 WSW 15 19 8 10 1016.2 1016.1 0.0
18/04:00am 13.8 9.9 6.9 63 3.3 WSW 17 20 9 11 1016.1 1016.0 0.0
18/03:30am 13.4 9.9 7.0 65 3.1 WSW 15 19 8 10 1016.3 1016.2 0.0
18/03:00am 12.3 9.3 7.6 73 2.3 W 13 15 7 8 1016.4 1016.3 0.0
18/02:30am 13.1 9.8 8.2 72 2.4 WSW 15 17 8 9 1016.4 1016.3 0.0
18/02:00am 12.9 10.2 9.0 77 2.0 W 13 17 7 9 1016.5 1016.4 0.0
18/01:30am 12.9 10.6 9.0 77 2.0 W 11 15 6 8 1016.7 1016.6 0.0
18/01:00am 12.7 10.3 8.8 77 2.0 W 11 15 6 8 1016.6 1016.5 0.0
18/12:30am 12.6 9.9 8.9 78 1.9 WNW 13 17 7 9 1016.8 1016.7 0.0
18/12:00am 12.9 10.3 9.4 79 1.8 W 13 17 7 9 1016.7 1016.6 0.0
 
Date/Time
EST
Temp
°C
App
Temp
°C
Dew
Point
°C
Rel
Hum
%
Delta-T
°C
Wind Press
QNH
hPa
Press
MSL
hPa
Rain since
9am
mm
Dir  Spd
km/h
Gust
km/h
Spd
kts
Gust
kts
17/11:30pm 13.1 10.5 9.4 78 1.9 WNW 13 17 7 9 1016.7 1016.6 0.0
17/11:00pm 14.4 11.8 9.4 72 2.6 WNW 13 15 7 8 1016.8 1016.7 0.0
17/10:30pm 14.3 11.9 9.9 75 2.3 W 13 15 7 8 1017.0 1016.9 0.0
17/10:00pm 14.4 12.0 10.2 76 2.2 W 13 15 7 8 1017.2 1017.1 0.0
17/09:30pm 12.9 11.2 9.9 82 1.5 WNW 9 11 5 6 1017.3 1017.2 0.0
17/09:00pm 15.5 13.4 9.6 68 3.1 W 11 13 6 7 1017.0 1016.9 0.0
17/08:30pm 15.2 12.8 10.2 72 2.6 W 13 15 7 8 1016.8 1016.7 0.0
17/08:00pm 14.7 12.7 10.3 75 2.3 WSW 11 13 6 7 1016.7 1016.6 0.0
17/07:30pm 15.0 13.1 10.6 75 2.3 WSW 11 13 6 7 1016.4 1016.3 0.0
17/07:00pm 15.6 13.7 10.6 72 2.6 SSW 11 13 6 7 1016.4 1016.3 0.0
17/06:30pm 15.8 14.6 10.3 70 2.9 SSW 7 9 4 5 1016.1 1016.0 0.0
17/06:00pm 15.5 15.4 10.7 73 2.5 SSW 2 7 1 4 1015.8 1015.7 0.0
17/05:30pm 15.7 15.6 10.7 72 2.7 S 2 7 1 4 1015.6 1015.5 0.0
17/05:00pm 15.9 14.8 10.7 71 2.8 SSE 7 9 4 5 1015.2 1015.1 0.0
17/04:30pm 16.4 14.9 10.7 69 3.0 S 9 11 5 6 1015.1 1015.0 0.0
17/04:00pm 17.4 16.4 11.0 66 3.5 SSE 7 11 4 6 1014.9 1014.8 0.0
17/03:30pm 17.9 15.4 11.2 65 3.6 SSE 15 22 8 12 1014.9 1014.8 0.0
17/03:00pm 18.3 15.3 11.8 66 3.6 SSE 19 28 10 15 1014.7 1014.6 0.0
17/02:30pm 18.7 15.3 10.5 59 4.4 SSE 19 24 10 13 1014.7 1014.6 0.0
17/02:00pm 19.0 16.0 10.8 59 4.5 SSE 17 24 9 13 1014.9 1014.8 0.0
17/01:30pm 18.9 15.7 9.9 56 4.8 SSE 17 22 9 12 1015.1 1015.0 0.0
17/01:00pm 19.2 16.4 11.5 61 4.2 SSE 17 26 9 14 1015.3 1015.2 0.0
17/12:30pm 18.9 15.5 10.7 59 4.4 SSE 19 24 10 13 1015.5 1015.4 0.0
17/12:00pm 19.3 16.7 10.6 57 4.7 SSW 15 20 8 11 1015.9 1015.8 0.0
17/11:30am 18.6 15.7 9.7 56 4.7 S 15 24 8 13 1016.2 1016.1 0.0
17/11:00am 18.1 15.3 10.0 59 4.3 SSW 15 26 8 14 1016.7 1016.6 0.0
17/10:30am 17.4 14.5 9.6 60 4.1 SW 15 20 8 11 1017.0 1016.9 0.0
17/10:00am 16.4 13.4 9.1 62 3.8 SW 15 22 8 12 1017.0 1016.9 0.0
17/09:30am 15.6 12.1 8.8 64 3.5 SW 17 24 9 13 1016.7 1016.6 0.0
17/09:00am 15.1 11.9 10.1 72 2.6 SW 17 24 9 13 1016.8 1016.7 2.0
17/08:30am 14.5 12.6 11.8 84 1.5 SSW 13 20 7 11 1016.7 1016.6 2.0
17/08:00am 13.9 12.5 12.1 89 1.0 WSW 11 17 6 9 1016.5 1016.4 2.0

Other formats

Comma delimited format used in spreadsheet applications
http://www.bom.gov.au/fwo/IDN60801/IDN60801.94598.axf

JavaScript Object Notation format (JSON) in row-major order
http://www.bom.gov.au/fwo/IDN60801/IDN60801.94598.json

Data quality

Most of these data are generated automatically and are frequently updated. Quality checks on data are not normally performed. It is possible for incorrect values to appear. Refer to information at About Latest Weather Observations and please check the disclaimer before using these data.